createdAt,value
2018-12-05T00:00:14.570Z,4.33
2018-12-05T00:02:50.825Z,4.47
2018-12-05T00:05:26.993Z,4.50
2018-12-05T00:08:03.308Z,4.50
2018-12-05T00:10:39.207Z,4.20
2018-12-05T00:13:20.490Z,4.73
2018-12-05T00:15:57.881Z,5.03
2018-12-05T00:18:34.183Z,4.33
2018-12-05T00:21:11.158Z,3.77
2018-12-05T00:23:47.831Z,4.57
2018-12-05T00:26:23.877Z,3.23
2018-12-05T00:29:00.301Z,3.83
2018-12-05T00:31:37.984Z,3.70
2018-12-05T00:34:14.552Z,4.03
2018-12-05T00:36:50.503Z,5.33
2018-12-05T00:39:26.519Z,5.87
2018-12-05T00:42:02.638Z,5.37
2018-12-05T00:44:39.595Z,5.10
2018-12-05T00:47:15.756Z,6.43
2018-12-05T00:49:51.590Z,6.17
2018-12-05T00:52:27.577Z,5.17
2018-12-05T00:55:03.750Z,5.80
2018-12-05T00:57:39.701Z,5.20
2018-12-05T01:00:16.892Z,5.73
2018-12-05T01:02:53.406Z,5.03
2018-12-05T01:05:30.379Z,5.90
2018-12-05T01:08:06.182Z,4.10
2018-12-05T01:10:42.638Z,4.40
2018-12-05T01:13:18.917Z,4.20
2018-12-05T01:15:54.752Z,4.17
2018-12-05T01:18:30.804Z,4.47
2018-12-05T01:21:06.799Z,3.73
2018-12-05T01:23:43.009Z,3.77
2018-12-05T01:26:19.018Z,4.13
2018-12-05T01:28:55.041Z,4.33
2018-12-05T01:31:30.660Z,4.03
2018-12-05T01:34:06.613Z,3.77
2018-12-05T01:36:42.581Z,3.90
2018-12-05T01:39:18.653Z,3.93
2018-12-05T01:41:54.671Z,4.57
2018-12-05T01:44:30.723Z,4.07
2018-12-05T01:47:06.525Z,3.73
2018-12-05T01:49:42.586Z,4.00
2018-12-05T01:52:18.409Z,3.77
2018-12-05T01:54:54.271Z,3.93
2018-12-05T01:57:30.191Z,3.57
2018-12-05T02:00:06.797Z,4.10
2018-12-05T02:02:43.619Z,4.33
2018-12-05T02:05:19.927Z,3.63
2018-12-05T02:07:55.957Z,3.83
2018-12-05T02:10:31.892Z,2.90
2018-12-05T02:13:07.764Z,3.90
2018-12-05T02:15:43.832Z,4.20
2018-12-05T02:18:19.785Z,3.97
2018-12-05T02:20:56.169Z,4.10
2018-12-05T02:23:32.600Z,4.33
2018-12-05T02:26:08.367Z,3.77
2018-12-05T02:28:44.360Z,3.67
2018-12-05T02:31:21.311Z,4.07
2018-12-05T02:33:57.142Z,3.20
2018-12-05T02:36:33.113Z,2.90
2018-12-05T02:39:09.782Z,2.77
2018-12-05T02:41:45.783Z,3.10
2018-12-05T02:44:21.833Z,3.50
2018-12-05T02:46:58.052Z,3.23
2018-12-05T02:49:36.250Z,3.90
2018-12-05T02:52:13.503Z,3.60
2018-12-05T02:54:49.537Z,3.47
2018-12-05T02:57:25.664Z,3.20
2018-12-05T03:00:01.493Z,3.50
2018-12-05T03:02:38.453Z,3.50
2018-12-05T03:05:14.316Z,2.83
2018-12-05T03:07:50.101Z,3.03
2018-12-05T03:10:26.094Z,4.00
2018-12-05T03:13:02.004Z,3.87
2018-12-05T03:15:38.058Z,3.67
2018-12-05T03:18:13.925Z,4.20
2018-12-05T03:20:49.662Z,3.00
2018-12-05T03:23:25.446Z,3.03
2018-12-05T03:26:01.325Z,3.53
2018-12-05T03:28:37.231Z,2.73
2018-12-05T03:31:14.071Z,3.47
2018-12-05T03:33:49.899Z,3.90
2018-12-05T03:36:25.921Z,3.30
2018-12-05T03:39:01.633Z,3.00
2018-12-05T03:41:37.884Z,3.47
2018-12-05T03:44:13.951Z,3.50
2018-12-05T03:46:50.853Z,3.07
2018-12-05T03:49:26.420Z,3.33
2018-12-05T03:52:02.392Z,4.27
2018-12-05T03:54:39.095Z,3.63
2018-12-05T03:57:15.203Z,5.13
2018-12-05T03:59:50.882Z,6.30
2018-12-05T04:02:26.874Z,4.97
2018-12-05T04:05:02.978Z,5.17
2018-12-05T04:07:38.826Z,5.87
2018-12-05T04:10:14.566Z,4.93
2018-12-05T04:12:50.814Z,5.67
2018-12-05T04:15:29.772Z,5.17
2018-12-05T04:18:06.114Z,6.00
2018-12-05T04:20:42.872Z,5.57
2018-12-05T04:23:18.836Z,5.40
2018-12-05T04:25:55.364Z,6.37
2018-12-05T04:28:31.031Z,4.50
2018-12-05T04:31:07.879Z,3.70
2018-12-05T04:33:46.825Z,3.53
2018-12-05T04:36:24.261Z,4.50
2018-12-05T04:39:00.253Z,3.30
2018-12-05T04:41:36.120Z,3.80
2018-12-05T04:44:12.262Z,3.83
2018-12-05T04:46:47.909Z,3.23
2018-12-05T04:49:23.649Z,3.50
2018-12-05T04:52:00.054Z,4.30
2018-12-05T04:54:36.237Z,3.70
2018-12-05T04:57:12.423Z,3.70
2018-12-05T04:59:48.326Z,3.70
2018-12-05T05:02:24.947Z,4.37
2018-12-05T05:05:02.121Z,4.40
2018-12-05T05:07:38.084Z,4.47
2018-12-05T05:10:16.672Z,5.03
2018-12-05T05:12:53.690Z,4.17
2018-12-05T05:15:29.781Z,4.17
2018-12-05T05:18:06.130Z,4.93
2018-12-05T05:20:42.515Z,5.43
2018-12-05T05:23:18.290Z,5.10
2018-12-05T05:25:54.097Z,4.80
2018-12-05T05:28:29.715Z,5.40
2018-12-05T05:31:05.856Z,4.97
2018-12-05T05:33:41.785Z,4.23
2018-12-05T05:36:17.860Z,5.23
2018-12-05T05:38:55.895Z,4.97
2018-12-05T05:41:33.604Z,4.93
2018-12-05T05:44:10.281Z,5.27
2018-12-05T05:46:46.383Z,5.20
2018-12-05T05:49:22.249Z,5.37
2018-12-05T05:51:58.276Z,5.00
2018-12-05T05:54:34.340Z,4.67
2018-12-05T05:57:10.425Z,5.27
2018-12-05T05:59:45.931Z,4.47
2018-12-05T06:02:21.775Z,4.17
2018-12-05T06:04:57.579Z,4.60
2018-12-05T06:07:33.726Z,4.60
2018-12-05T06:10:10.170Z,5.30
2018-12-05T06:12:46.729Z,5.03
2018-12-05T06:15:22.858Z,4.97
2018-12-05T06:17:58.927Z,5.30
2018-12-05T06:20:34.619Z,4.87
2018-12-05T06:23:10.617Z,5.00
2018-12-05T06:25:47.437Z,5.43
2018-12-05T06:28:23.608Z,5.53
2018-12-05T06:30:59.442Z,5.77
2018-12-05T06:33:35.385Z,5.57
2018-12-05T06:36:11.087Z,6.60
2018-12-05T06:38:47.062Z,6.47
2018-12-05T06:41:23.029Z,6.03
2018-12-05T06:43:58.793Z,6.20
2018-12-05T06:46:34.860Z,5.90
2018-12-05T06:49:11.043Z,5.80
2018-12-05T06:51:48.786Z,7.30
2018-12-05T06:54:25.598Z,6.63
2018-12-05T06:57:02.224Z,6.40
2018-12-05T06:59:38.977Z,6.47
2018-12-05T07:02:15.455Z,7.97
2018-12-05T07:04:51.825Z,8.13
2018-12-05T07:07:28.577Z,8.10
2018-12-05T07:10:05.101Z,7.00
2018-12-05T07:12:41.735Z,8.07
2018-12-05T07:15:18.227Z,7.63
2018-12-05T07:17:54.601Z,8.00
2018-12-05T07:20:30.979Z,7.43
2018-12-05T07:23:06.732Z,8.13
2018-12-05T07:25:42.967Z,8.03
2018-12-05T07:28:19.318Z,8.60
2018-12-05T07:30:55.299Z,9.13
2018-12-05T07:33:31.184Z,8.60
2018-12-05T07:36:07.155Z,8.40
2018-12-05T07:38:43.358Z,8.20
2018-12-05T07:41:19.699Z,9.57
2018-12-05T07:43:55.760Z,9.63
2018-12-05T07:46:31.722Z,9.27
2018-12-05T07:49:09.604Z,9.33
2018-12-05T07:51:45.620Z,9.27
2018-12-05T07:54:21.414Z,9.53
2018-12-05T07:56:57.322Z,9.37
2018-12-05T07:59:33.190Z,9.97
2018-12-05T08:02:09.896Z,10.53
2018-12-05T08:04:45.903Z,8.50
2018-12-05T08:07:21.815Z,9.60
2018-12-05T08:09:57.702Z,10.17
2018-12-05T08:12:33.678Z,9.50
2018-12-05T08:15:11.062Z,9.23
2018-12-05T08:17:47.553Z,9.73
2018-12-05T08:20:23.758Z,8.70
2018-12-05T08:22:59.396Z,9.73
2018-12-05T08:25:35.454Z,9.23
2018-12-05T08:28:11.534Z,8.80
2018-12-05T08:30:48.288Z,8.97
2018-12-05T08:33:24.435Z,7.97
2018-12-05T08:36:00.099Z,8.50
2018-12-05T08:38:36.153Z,8.20
2018-12-05T08:41:12.542Z,9.47
2018-12-05T08:43:49.062Z,8.77
2018-12-05T08:46:24.861Z,8.87
2018-12-05T08:49:01.214Z,7.67
2018-12-05T08:51:36.758Z,8.10
2018-12-05T08:54:13.358Z,8.67
2018-12-05T08:56:49.632Z,8.57
2018-12-05T08:59:25.290Z,8.97
2018-12-05T09:02:01.259Z,8.13
2018-12-05T09:04:38.842Z,8.57
2018-12-05T09:07:14.996Z,8.20
2018-12-05T09:09:50.880Z,8.73
2018-12-05T09:12:26.694Z,8.33
2018-12-05T09:15:02.508Z,8.63
2018-12-05T09:17:39.357Z,8.20
2018-12-05T09:20:15.215Z,8.00
2018-12-05T09:22:51.044Z,8.77
2018-12-05T09:25:27.031Z,8.73
2018-12-05T09:28:03.045Z,8.90
2018-12-05T09:30:38.929Z,9.33
2018-12-05T09:33:15.860Z,8.37
2018-12-05T09:35:51.973Z,7.90
2018-12-05T09:38:27.785Z,8.70
2018-12-05T09:41:03.695Z,8.47
2018-12-05T09:43:39.637Z,8.23
2018-12-05T09:46:15.530Z,7.80
2018-12-05T09:48:51.562Z,7.00
2018-12-05T09:51:27.368Z,8.13
2018-12-05T09:54:03.510Z,7.70
2018-12-05T09:56:40.012Z,7.87
2018-12-05T09:59:16.027Z,7.67
2018-12-05T10:01:51.932Z,7.87
2018-12-05T10:04:27.670Z,8.07
2018-12-05T10:07:04.014Z,6.50
2018-12-05T10:09:40.104Z,7.10
2018-12-05T10:12:16.039Z,7.70
2018-12-05T10:14:52.017Z,8.47
2018-12-05T10:17:27.988Z,7.47
2018-12-05T10:20:04.222Z,7.73
2018-12-05T10:22:40.672Z,7.47
2018-12-05T10:25:16.616Z,6.77
2018-12-05T10:27:52.127Z,7.90
2018-12-05T10:30:28.380Z,7.07
2018-12-05T10:33:04.952Z,6.63
2018-12-05T10:35:41.702Z,7.03
2018-12-05T10:38:17.933Z,8.70
2018-12-05T10:40:54.229Z,8.00
2018-12-05T10:43:29.758Z,7.37
2018-12-05T10:46:05.744Z,7.23
2018-12-05T10:48:41.591Z,7.27
2018-12-05T10:51:17.445Z,6.27
2018-12-05T10:53:53.109Z,7.00
2018-12-05T10:56:28.824Z,6.90
2018-12-05T10:59:04.824Z,6.93
2018-12-05T11:01:45.772Z,7.03
2018-12-05T11:04:27.530Z,7.73
2018-12-05T11:07:08.266Z,6.57
2018-12-05T11:09:49.074Z,6.70
2018-12-05T11:13:29.536Z,6.10
2018-12-05T11:16:12.823Z,6.13
2018-12-05T11:18:53.803Z,6.30
2018-12-05T11:21:35.001Z,6.50
2018-12-05T11:24:43.269Z,6.67
2018-12-05T11:27:19.917Z,5.67
2018-12-05T11:29:55.736Z,5.80
2018-12-05T11:32:31.941Z,6.63
2018-12-05T11:35:08.405Z,6.73
2018-12-05T11:37:44.252Z,6.30
2018-12-05T11:40:20.640Z,6.17
2018-12-05T11:42:56.801Z,5.33
2018-12-05T11:45:33.314Z,5.33
2018-12-05T11:48:09.844Z,5.17
2018-12-05T11:50:45.606Z,5.33
2018-12-05T11:53:21.355Z,5.90
2018-12-05T11:55:57.196Z,6.00
2018-12-05T11:58:33.041Z,5.67
2018-12-05T12:01:09.592Z,5.03
2018-12-05T12:03:45.877Z,4.97
2018-12-05T12:06:23.916Z,4.80
2018-12-05T12:09:00.869Z,4.50
2018-12-05T12:11:37.728Z,5.07
2018-12-05T12:14:13.944Z,4.87
2018-12-05T12:16:49.740Z,4.43
2018-12-05T12:19:25.546Z,4.93
2018-12-05T12:22:01.555Z,4.17
2018-12-05T12:24:37.433Z,4.40
2018-12-05T12:27:13.248Z,4.30
2018-12-05T12:29:48.883Z,4.40
2018-12-05T12:32:26.186Z,3.97
2018-12-05T12:35:02.561Z,3.63
2018-12-05T12:37:38.710Z,3.67
2018-12-05T12:40:17.424Z,3.87
2018-12-05T12:42:55.074Z,4.60
2018-12-05T12:45:31.841Z,3.80
2018-12-05T12:48:07.695Z,4.37
2018-12-05T12:50:45.909Z,4.50
2018-12-05T12:53:21.571Z,4.07
2018-12-05T12:55:58.334Z,4.20
2018-12-05T12:58:34.374Z,4.40
2018-12-05T13:01:10.381Z,5.17
2018-12-05T13:03:48.617Z,7.03
2018-12-05T13:06:25.106Z,5.50
2018-12-05T13:09:01.003Z,4.47
2018-12-05T13:11:36.837Z,5.07
2018-12-05T13:14:12.767Z,4.73
2018-12-05T13:16:48.704Z,5.10
2018-12-05T13:19:24.990Z,5.57
2018-12-05T13:22:01.408Z,6.33
2018-12-05T13:24:37.407Z,6.27
2018-12-05T13:27:13.336Z,6.17
2018-12-05T13:29:48.984Z,5.73
2018-12-05T13:32:24.902Z,5.57
2018-12-05T13:35:01.136Z,5.43
2018-12-05T13:37:36.938Z,5.93
2018-12-05T13:40:12.631Z,5.50
2018-12-05T13:42:48.505Z,5.40
2018-12-05T13:45:25.146Z,5.10
2018-12-05T13:48:01.338Z,5.03
2018-12-05T13:50:37.089Z,5.17
2018-12-05T13:53:13.710Z,5.07
2018-12-05T13:55:50.193Z,5.40
2018-12-05T13:58:25.926Z,4.77
2018-12-05T14:01:01.849Z,5.53
2018-12-05T14:03:38.443Z,4.77
2018-12-05T14:06:15.012Z,4.90
2018-12-05T14:08:50.893Z,5.00
2018-12-05T14:11:26.877Z,5.63
2018-12-05T14:14:02.682Z,4.60
2018-12-05T14:16:39.867Z,5.43
2018-12-05T14:19:15.753Z,5.40
2018-12-05T14:21:51.516Z,4.93
2018-12-05T14:24:27.550Z,6.00
2018-12-05T14:27:03.467Z,6.43
2018-12-05T14:29:39.432Z,5.87
2018-12-05T14:32:16.589Z,5.47
2018-12-05T14:34:53.206Z,5.90
2018-12-05T14:37:29.401Z,6.83
2018-12-05T14:40:06.046Z,6.30
2018-12-05T14:42:42.824Z,5.00
2018-12-05T14:45:18.797Z,5.63
2018-12-05T14:47:54.865Z,5.40
2018-12-05T14:50:30.668Z,4.53
2018-12-05T14:53:08.016Z,4.60
2018-12-05T14:55:44.345Z,4.20
2018-12-05T14:58:21.101Z,4.03
2018-12-05T15:00:57.743Z,4.37
2018-12-05T15:03:36.579Z,6.57
2018-12-05T15:06:14.663Z,6.00
2018-12-05T15:08:52.685Z,5.87
2018-12-05T15:11:30.718Z,9.00
2018-12-05T15:14:08.157Z,7.97
2018-12-05T15:16:46.873Z,8.40
2018-12-05T15:19:23.094Z,7.80
2018-12-05T15:22:00.149Z,6.83
2018-12-05T15:24:36.515Z,8.97
2018-12-05T15:27:14.268Z,8.30
2018-12-05T15:29:50.854Z,7.83
2018-12-05T15:32:29.100Z,9.43
2018-12-05T15:35:05.289Z,7.97
2018-12-05T15:37:41.041Z,28.87
2018-12-05T15:40:16.794Z,33.83
2018-12-05T15:42:52.928Z,14.90
2018-12-05T15:45:29.038Z,11.33
2018-12-05T15:48:05.097Z,10.80
2018-12-05T15:50:41.538Z,10.23
2018-12-05T15:53:17.482Z,16.63
2018-12-05T15:55:53.629Z,16.97
2018-12-05T15:58:29.438Z,14.03
2018-12-05T16:01:05.906Z,15.10
2018-12-05T16:03:43.400Z,12.70
2018-12-05T16:06:19.564Z,14.77
2018-12-05T16:08:56.256Z,14.80
2018-12-05T16:11:33.108Z,17.40
2018-12-05T16:14:09.339Z,15.57
2018-12-05T16:16:46.897Z,14.70
2018-12-05T16:19:23.639Z,15.33
2018-12-05T16:21:59.530Z,13.17
2018-12-05T16:24:35.528Z,13.53
2018-12-05T16:27:13.514Z,11.37
2018-12-05T16:29:51.361Z,10.80
2018-12-05T16:32:27.563Z,11.43
2018-12-05T16:35:05.233Z,10.43
2018-12-05T16:37:47.727Z,13.17
2018-12-05T16:40:24.807Z,13.57
2018-12-05T16:43:02.969Z,12.20
2018-12-05T16:45:45.200Z,12.70
2018-12-05T16:48:22.145Z,13.10
2018-12-05T16:50:58.018Z,11.93
2018-12-05T16:53:36.261Z,13.17
2018-12-05T16:56:16.001Z,11.50
2018-12-05T16:58:52.130Z,14.07
2018-12-05T17:01:28.739Z,11.00
2018-12-05T17:04:04.757Z,10.40
2018-12-05T17:06:42.208Z,10.70
2018-12-05T17:09:25.658Z,11.30
2018-12-05T17:11:56.213Z,11.40
2018-12-05T17:14:34.393Z,10.70
2018-12-05T17:17:11.657Z,10.27
2018-12-05T17:19:48.078Z,10.70
2018-12-05T17:22:24.602Z,11.80
2018-12-05T17:25:01.959Z,13.20
2018-12-05T17:27:39.678Z,11.50
2018-12-05T17:30:16.775Z,10.97
2018-12-05T17:32:52.702Z,10.27
2018-12-05T17:35:29.829Z,12.57
2018-12-05T17:38:06.246Z,11.17
2018-12-05T17:40:42.481Z,11.53
2018-12-05T17:43:19.492Z,14.73
2018-12-05T17:45:55.194Z,12.77
2018-12-05T17:48:31.603Z,13.70
2018-12-05T17:51:11.391Z,16.60
2018-12-05T17:53:51.901Z,15.17
2018-12-05T17:56:28.463Z,16.40
2018-12-05T17:59:06.590Z,15.10
2018-12-05T18:01:44.259Z,16.73
2018-12-05T18:04:20.344Z,17.43
2018-12-05T18:06:57.501Z,18.10
2018-12-05T18:09:34.604Z,22.33
2018-12-05T18:12:11.592Z,26.23
2018-12-05T18:14:48.463Z,22.53
2018-12-05T18:17:25.515Z,24.87
2018-12-05T18:20:02.417Z,28.03
2018-12-05T18:22:39.224Z,25.63
2018-12-05T18:25:15.845Z,27.83
2018-12-05T18:27:52.919Z,29.07
2018-12-05T18:30:29.341Z,36.20
2018-12-05T18:33:06.799Z,32.80
2018-12-05T18:35:43.195Z,39.50
2018-12-05T18:38:20.614Z,39.80
2018-12-05T18:40:57.161Z,39.53
2018-12-05T18:43:35.157Z,37.47
2018-12-05T18:46:14.734Z,34.73
2018-12-05T18:48:50.911Z,31.07
2018-12-05T18:51:27.846Z,36.67
2018-12-05T18:54:06.693Z,46.50
2018-12-05T18:56:43.205Z,46.57
2018-12-05T18:59:21.058Z,48.57
2018-12-05T19:01:57.506Z,49.50
2018-12-05T19:04:35.103Z,40.97
2018-12-05T19:07:11.635Z,37.50
2018-12-05T19:09:48.984Z,39.40
2018-12-05T19:12:25.449Z,37.23
2018-12-05T19:15:03.822Z,41.33
2018-12-05T19:17:39.940Z,36.53
2018-12-05T19:20:16.823Z,33.67
2018-12-05T19:23:05.045Z,34.90
2018-12-05T19:25:42.880Z,30.50
2018-12-05T19:28:18.819Z,28.63
2018-12-05T19:30:56.568Z,27.43
2018-12-05T19:33:33.619Z,26.43
2018-12-05T19:36:11.554Z,31.97
2018-12-05T19:38:48.421Z,25.53
2018-12-05T19:41:25.913Z,27.70
2018-12-05T19:44:02.397Z,25.20
2018-12-05T19:46:39.558Z,23.60
2018-12-05T19:49:17.256Z,28.90
2018-12-05T19:51:54.578Z,25.43
2018-12-05T19:54:31.254Z,26.73
2018-12-05T19:57:08.389Z,24.70
2018-12-05T19:59:46.002Z,28.90
2018-12-05T20:02:22.044Z,30.37
2018-12-05T20:05:01.565Z,28.83
2018-12-05T20:07:38.693Z,25.00
2018-12-05T20:10:18.538Z,29.70
2018-12-05T20:12:54.599Z,28.23
2018-12-05T20:15:32.292Z,32.57
2018-12-05T20:18:08.232Z,37.67
2018-12-05T20:20:44.107Z,29.23
2018-12-05T20:23:24.048Z,27.37
2018-12-05T20:26:01.792Z,27.70
2018-12-05T20:28:38.474Z,35.80
2018-12-05T20:31:15.249Z,30.53
2018-12-05T20:33:52.813Z,29.40
2018-12-05T20:36:28.970Z,27.67
2018-12-05T20:39:11.469Z,27.23
2018-12-05T20:41:49.429Z,30.37
2018-12-05T20:44:26.800Z,36.00
2018-12-05T20:47:02.997Z,32.90
2018-12-05T20:49:40.227Z,32.93
2018-12-05T20:52:17.411Z,30.27
2018-12-05T20:54:53.251Z,41.07
2018-12-05T20:57:29.357Z,37.10
2018-12-05T21:00:06.993Z,29.00
2018-12-05T21:02:43.723Z,33.23
2018-12-05T21:05:20.618Z,39.87
2018-12-05T21:07:57.297Z,36.83
2018-12-05T21:10:33.660Z,34.57
2018-12-05T21:13:10.568Z,42.03
2018-12-05T21:15:46.942Z,42.30
2018-12-05T21:18:24.049Z,56.13
2018-12-05T21:21:00.811Z,64.47
2018-12-05T21:23:37.071Z,72.20
2018-12-05T21:26:13.735Z,80.93
2018-12-05T21:28:50.621Z,93.57
2018-12-05T21:31:26.705Z,115.77
2018-12-05T21:34:05.540Z,141.30
2018-12-05T21:36:42.746Z,116.90
2018-12-05T21:39:19.389Z,93.17
2018-12-05T21:41:56.101Z,82.73
2018-12-05T21:44:32.161Z,92.37
2018-12-05T21:47:08.174Z,85.93
2018-12-05T21:49:44.885Z,71.63
2018-12-05T21:52:22.931Z,78.20
2018-12-05T21:54:59.152Z,77.90
2018-12-05T21:57:35.552Z,63.23
2018-12-05T22:00:12.966Z,53.87
2018-12-05T22:02:49.044Z,53.40
2018-12-05T22:05:24.829Z,46.37
2018-12-05T22:08:01.633Z,44.17
2018-12-05T22:10:37.786Z,55.07
2018-12-05T22:13:13.707Z,58.13
2018-12-05T22:15:50.424Z,48.10
2018-12-05T22:18:26.395Z,46.70
2018-12-05T22:21:02.584Z,48.13
2018-12-05T22:23:39.082Z,46.30
2018-12-05T22:26:17.418Z,38.27
2018-12-05T22:28:52.932Z,46.47
2018-12-05T22:31:29.423Z,53.57
2018-12-05T22:34:06.020Z,64.83
2018-12-05T22:36:42.109Z,46.57
2018-12-05T22:39:18.034Z,48.10
2018-12-05T22:41:56.023Z,52.57
2018-12-05T22:44:32.544Z,45.63
2018-12-05T22:47:08.486Z,50.63
2018-12-05T22:49:46.852Z,53.73
2018-12-05T22:52:23.470Z,56.40
2018-12-05T22:55:00.179Z,43.53
2018-12-05T22:57:36.217Z,47.43
2018-12-05T23:00:18.043Z,51.20
2018-12-05T23:02:57.270Z,58.53
2018-12-05T23:05:33.485Z,57.40
2018-12-05T23:08:09.512Z,60.43
2018-12-05T23:10:47.030Z,52.80
2018-12-05T23:13:23.057Z,48.90
2018-12-05T23:15:59.038Z,57.33
2018-12-05T23:18:35.182Z,67.37
2018-12-05T23:21:11.536Z,60.50
2018-12-05T23:23:48.329Z,60.70
2018-12-05T23:26:24.285Z,48.03
2018-12-05T23:29:00.341Z,46.63
2018-12-05T23:31:36.283Z,49.63
2018-12-05T23:34:12.233Z,51.73
2018-12-05T23:36:48.303Z,65.60
2018-12-05T23:39:24.223Z,56.90
2018-12-05T23:42:00.863Z,60.17
2018-12-05T23:44:37.323Z,63.37
2018-12-05T23:47:14.902Z,68.20
2018-12-05T23:49:50.716Z,65.30
2018-12-05T23:52:26.679Z,55.73
2018-12-05T23:55:02.802Z,57.27
2018-12-05T23:57:38.442Z,56.40
